sensor_id;sensor_type;location;lat;lon;timestamp;pressure;altitude;pressure_sealevel;temperature;humidity
48848;BME280;36611;51.638;5.784;2023-02-15T00:01:42;102817.34;;;7.80;52.87
48848;BME280;36611;51.638;5.784;2023-02-15T00:04:09;102816.28;;;7.86;52.88
48848;BME280;36611;51.638;5.784;2023-02-15T00:06:38;102809.97;;;7.88;52.80
48848;BME280;36611;51.638;5.784;2023-02-15T00:09:05;102812.78;;;7.84;52.66
48848;BME280;36611;51.638;5.784;2023-02-15T00:11:31;102811.38;;;7.71;52.43
48848;BME280;36611;51.638;5.784;2023-02-15T00:14:07;102815.34;;;7.56;52.31
48848;BME280;36611;51.638;5.784;2023-02-15T00:16:35;102806.78;;;7.43;52.24
48848;BME280;36611;51.638;5.784;2023-02-15T00:19:02;102815.00;;;7.34;52.23
48848;BME280;36611;51.638;5.784;2023-02-15T00:21:30;102817.00;;;7.26;52.54
48848;BME280;36611;51.638;5.784;2023-02-15T00:23:59;102812.63;;;7.23;52.50
48848;BME280;36611;51.638;5.784;2023-02-15T00:26:27;102817.13;;;7.21;52.61
48848;BME280;36611;51.638;5.784;2023-02-15T00:28:55;102805.66;;;7.18;52.56
48848;BME280;36611;51.638;5.784;2023-02-15T00:31:22;102805.72;;;7.15;52.66
48848;BME280;36611;51.638;5.784;2023-02-15T00:33:48;102798.66;;;7.12;52.65
48848;BME280;36611;51.638;5.784;2023-02-15T00:36:15;102799.63;;;7.10;52.68
48848;BME280;36611;51.638;5.784;2023-02-15T00:38:42;102800.63;;;7.06;52.59
48848;BME280;36611;51.638;5.784;2023-02-15T00:41:09;102784.81;;;6.96;52.70
48848;BME280;36611;51.638;5.784;2023-02-15T00:43:37;102782.41;;;6.86;52.54
48848;BME280;36611;51.638;5.784;2023-02-15T00:46:04;102786.22;;;6.76;52.56
48848;BME280;36611;51.638;5.784;2023-02-15T00:48:31;102782.88;;;6.66;52.56
48848;BME280;36611;51.638;5.784;2023-02-15T00:50:59;102785.75;;;6.57;52.73
48848;BME280;36611;51.638;5.784;2023-02-15T00:53:26;102782.31;;;6.52;52.76
48848;BME280;36611;51.638;5.784;2023-02-15T00:55:54;102781.47;;;6.50;52.68
48848;BME280;36611;51.638;5.784;2023-02-15T00:58:21;102772.63;;;6.48;52.90
48848;BME280;36611;51.638;5.784;2023-02-15T01:00:49;102774.41;;;6.47;52.91
48848;BME280;36611;51.638;5.784;2023-02-15T01:03:16;102772.63;;;6.48;53.05
48848;BME280;36611;51.638;5.784;2023-02-15T01:05:43;102769.84;;;6.52;53.09
48848;BME280;36611;51.638;5.784;2023-02-15T01:08:10;102767.06;;;6.57;53.13
48848;BME280;36611;51.638;5.784;2023-02-15T01:10:37;102771.44;;;6.61;53.26
48848;BME280;36611;51.638;5.784;2023-02-15T01:13:04;102766.00;;;6.64;53.14
48848;BME280;36611;51.638;5.784;2023-02-15T01:15:34;102764.16;;;6.67;53.12
48848;BME280;36611;51.638;5.784;2023-02-15T01:18:03;102757.94;;;6.67;53.18
48848;BME280;36611;51.638;5.784;2023-02-15T01:20:29;102762.44;;;6.65;53.10
48848;BME280;36611;51.638;5.784;2023-02-15T01:22:56;102753.63;;;6.61;53.02
48848;BME280;36611;51.638;5.784;2023-02-15T01:25:24;102745.69;;;6.58;52.96
48848;BME280;36611;51.638;5.784;2023-02-15T01:27:51;102744.06;;;6.51;52.99
48848;BME280;36611;51.638;5.784;2023-02-15T01:30:17;102745.13;;;6.44;52.92
48848;BME280;36611;51.638;5.784;2023-02-15T01:32:44;102739.91;;;6.40;53.19
48848;BME280;36611;51.638;5.784;2023-02-15T01:35:11;102745.31;;;6.36;52.93
48848;BME280;36611;51.638;5.784;2023-02-15T01:37:38;102740.97;;;6.32;53.17
48848;BME280;36611;51.638;5.784;2023-02-15T01:40:07;102742.72;;;6.33;53.13
48848;BME280;36611;51.638;5.784;2023-02-15T01:42:35;102737.34;;;6.35;53.21
48848;BME280;36611;51.638;5.784;2023-02-15T01:58:27;102732.84;;;6.37;53.21
48848;BME280;36611;51.638;5.784;2023-02-15T02:00:57;102732.84;;;6.37;53.26
48848;BME280;36611;51.638;5.784;2023-02-15T02:06:15;102732.81;;;6.38;53.24
48848;BME280;36611;51.638;5.784;2023-02-15T02:08:42;102727.47;;;6.38;53.45
48848;BME280;36611;51.638;5.784;2023-02-15T02:11:12;102724.81;;;6.38;53.33
48848;BME280;36611;51.638;5.784;2023-02-15T02:13:43;102723.09;;;6.36;53.29
48848;BME280;36611;51.638;5.784;2023-02-15T02:27:28;102705.97;;;6.08;53.33
48848;BME280;36611;51.638;5.784;2023-02-15T02:30:25;102704.34;;;6.00;53.29
48848;BME280;36611;51.638;5.784;2023-02-15T02:38:27;102706.31;;;5.91;53.44
48848;BME280;36611;51.638;5.784;2023-02-15T02:41:00;102701.88;;;5.88;53.45
48848;BME280;36611;51.638;5.784;2023-02-15T02:43:43;102709.97;;;5.85;53.36
48848;BME280;36611;51.638;5.784;2023-02-15T02:46:24;102701.19;;;5.80;53.40
48848;BME280;36611;51.638;5.784;2023-02-15T02:48:54;102693.22;;;5.79;53.54
48848;BME280;36611;51.638;5.784;2023-02-15T02:51:21;102692.38;;;5.77;53.44
48848;BME280;36611;51.638;5.784;2023-02-15T02:53:53;102690.59;;;5.77;53.57
48848;BME280;36611;51.638;5.784;2023-02-15T02:56:29;102686.09;;;5.79;53.88
48848;BME280;36611;51.638;5.784;2023-02-15T03:01:41;102678.88;;;5.84;53.73
48848;BME280;36611;51.638;5.784;2023-02-15T03:04:13;102682.41;;;5.85;53.63
48848;BME280;36611;51.638;5.784;2023-02-15T03:06:47;102675.31;;;5.84;53.66
48848;BME280;36611;51.638;5.784;2023-02-15T03:09:24;102668.25;;;5.83;53.72
48848;BME280;36611;51.638;5.784;2023-02-15T03:11:51;102662.91;;;5.83;53.69
48848;BME280;36611;51.638;5.784;2023-02-15T03:14:20;102673.50;;;5.86;53.70
48848;BME280;36611;51.638;5.784;2023-02-15T03:16:47;102667.22;;;5.88;53.80
48848;BME280;36611;51.638;5.784;2023-02-15T03:19:24;102669.84;;;5.91;54.02
48848;BME280;36611;51.638;5.784;2023-02-15T03:21:58;102664.44;;;5.96;53.97
48848;BME280;36611;51.638;5.784;2023-02-15T03:24:42;102666.13;;;6.00;53.93
48848;BME280;36611;51.638;5.784;2023-02-15T03:27:15;102660.81;;;6.00;53.97
48848;BME280;36611;51.638;5.784;2023-02-15T03:29:47;102666.22;;;5.97;53.86
48848;BME280;36611;51.638;5.784;2023-02-15T03:32:16;102663.56;;;5.94;53.82
48848;BME280;36611;51.638;5.784;2023-02-15T03:34:43;102661.81;;;5.93;53.84
48848;BME280;36611;51.638;5.784;2023-02-15T03:37:25;102650.25;;;5.94;53.82
48848;BME280;36611;51.638;5.784;2023-02-15T03:42:32;102653.78;;;5.96;53.98
48848;BME280;36611;51.638;5.784;2023-02-15T03:45:11;102648.38;;;5.99;54.06
48848;BME280;36611;51.638;5.784;2023-02-15T03:47:44;102651.81;;;6.04;54.05
48848;BME280;36611;51.638;5.784;2023-02-15T03:50:32;102644.66;;;6.06;54.11
48848;BME280;36611;51.638;5.784;2023-02-15T03:53:22;102647.31;;;6.06;54.09
48848;BME280;36611;51.638;5.784;2023-02-15T03:55:54;102647.34;;;6.04;53.95
48848;BME280;36611;51.638;5.784;2023-02-15T03:58:21;102642.94;;;6.03;54.04
48848;BME280;36611;51.638;5.784;2023-02-15T04:01:15;102629.66;;;6.00;53.97
48848;BME280;36611;51.638;5.784;2023-02-15T04:04:18;102628.84;;;5.98;54.04
48848;BME280;36611;51.638;5.784;2023-02-15T04:06:45;102628.78;;;6.00;54.26
48848;BME280;36611;51.638;5.784;2023-02-15T04:09:13;102625.22;;;6.01;54.22
48848;BME280;36611;51.638;5.784;2023-02-15T04:11:58;102633.22;;;6.01;54.29
48848;BME280;36611;51.638;5.784;2023-02-15T04:14:25;102627.84;;;6.02;54.14
48848;BME280;36611;51.638;5.784;2023-02-15T04:17:10;102635.88;;;6.01;54.24
48848;BME280;36611;51.638;5.784;2023-02-15T04:19:37;102641.25;;;5.99;54.16
48848;BME280;36611;51.638;5.784;2023-02-15T04:22:22;102644.88;;;5.97;54.10
48848;BME280;36611;51.638;5.784;2023-02-15T04:25:07;102640.53;;;5.91;54.01
48848;BME280;36611;51.638;5.784;2023-02-15T04:27:48;102645.00;;;5.88;54.03
48848;BME280;36611;51.638;5.784;2023-02-15T04:30:17;102641.44;;;5.89;54.15
48848;BME280;36611;51.638;5.784;2023-02-15T04:32:45;102638.78;;;5.90;54.13
48848;BME280;36611;51.638;5.784;2023-02-15T04:35:12;102644.91;;;5.94;54.24
48848;BME280;36611;51.638;5.784;2023-02-15T04:37:39;102640.50;;;5.93;54.32
48848;BME280;36611;51.638;5.784;2023-02-15T04:40:08;102635.19;;;5.91;54.17
48848;BME280;36611;51.638;5.784;2023-02-15T04:42:35;102640.59;;;5.87;54.09
48848;BME280;36611;51.638;5.784;2023-02-15T04:45:02;102631.81;;;5.82;54.31
48848;BME280;36611;51.638;5.784;2023-02-15T04:47:29;102634.56;;;5.79;53.98
48848;BME280;36611;51.638;5.784;2023-02-15T04:49:56;102631.97;;;5.75;54.14
48848;BME280;36611;51.638;5.784;2023-02-15T04:52:23;102637.34;;;5.74;54.09
48848;BME280;36611;51.638;5.784;2023-02-15T04:54:50;102630.25;;;5.73;54.13
48848;BME280;36611;51.638;5.784;2023-02-15T04:57:17;102618.75;;;5.71;54.06
48848;BME280;36611;51.638;5.784;2023-02-15T04:59:43;102628.53;;;5.70;54.26
48848;BME280;36611;51.638;5.784;2023-02-15T05:02:10;102622.31;;;5.70;54.34
48848;BME280;36611;51.638;5.784;2023-02-15T05:04:36;102627.69;;;5.68;54.37
48848;BME280;36611;51.638;5.784;2023-02-15T05:07:03;102610.78;;;5.69;54.40
48848;BME280;36611;51.638;5.784;2023-02-15T05:09:30;102616.13;;;5.69;54.54
48848;BME280;36611;51.638;5.784;2023-02-15T05:11:56;102610.84;;;5.66;54.54
48848;BME280;36611;51.638;5.784;2023-02-15T05:14:23;102611.78;;;5.64;54.36
48848;BME280;36611;51.638;5.784;2023-02-15T05:16:50;102601.22;;;5.59;54.45
48848;BME280;36611;51.638;5.784;2023-02-15T05:19:16;102603.97;;;5.56;54.75
48848;BME280;36611;51.638;5.784;2023-02-15T05:21:43;102604.88;;;5.55;54.58
48848;BME280;36611;51.638;5.784;2023-02-15T05:24:10;102608.47;;;5.54;54.55
48848;BME280;36611;51.638;5.784;2023-02-15T05:26:55;102603.19;;;5.51;54.72
48848;BME280;36611;51.638;5.784;2023-02-15T05:29:40;102597.00;;;5.51;54.76
48848;BME280;36611;51.638;5.784;2023-02-15T05:32:06;102603.16;;;5.53;54.63
48848;BME280;36611;51.638;5.784;2023-02-15T05:34:33;102605.81;;;5.53;54.55
48848;BME280;36611;51.638;5.784;2023-02-15T05:37:00;102602.22;;;5.55;54.75
48848;BME280;36611;51.638;5.784;2023-02-15T05:39:26;102596.84;;;5.57;54.98
48848;BME280;36611;51.638;5.784;2023-02-15T05:41:53;102594.16;;;5.58;54.70
48848;BME280;36611;51.638;5.784;2023-02-15T05:44:20;102592.38;;;5.59;54.81
48848;BME280;36611;51.638;5.784;2023-02-15T05:46:46;102585.31;;;5.56;54.83
48848;BME280;36611;51.638;5.784;2023-02-15T05:49:13;102589.88;;;5.51;54.77
48848;BME280;36611;51.638;5.784;2023-02-15T05:51:39;102602.34;;;5.49;54.71
48848;BME280;36611;51.638;5.784;2023-02-15T05:54:06;102596.16;;;5.49;54.93
48848;BME280;36611;51.638;5.784;2023-02-15T05:56:33;102600.63;;;5.47;54.86
48848;BME280;36611;51.638;5.784;2023-02-15T05:58:59;102590.88;;;5.46;55.04
48848;BME280;36611;51.638;5.784;2023-02-15T06:01:26;102592.63;;;5.47;55.21
48848;BME280;36611;51.638;5.784;2023-02-15T06:03:53;102599.66;;;5.51;55.07
48848;BME280;36611;51.638;5.784;2023-02-15T06:06:20;102596.88;;;5.55;55.02
48848;BME280;36611;51.638;5.784;2023-02-15T06:08:47;102595.97;;;5.56;54.99
48848;BME280;36611;51.638;5.784;2023-02-15T06:11:13;102601.28;;;5.58;54.91
48848;BME280;36611;51.638;5.784;2023-02-15T06:13:40;102611.91;;;5.59;54.96
48848;BME280;36611;51.638;5.784;2023-02-15T06:16:07;102603.00;;;5.60;54.84
48848;BME280;36611;51.638;5.784;2023-02-15T06:18:34;102605.63;;;5.62;54.83
48848;BME280;36611;51.638;5.784;2023-02-15T06:21:00;102607.38;;;5.63;54.74
48848;BME280;36611;51.638;5.784;2023-02-15T06:23:27;102604.72;;;5.63;54.74
48848;BME280;36611;51.638;5.784;2023-02-15T06:25:54;102602.97;;;5.62;54.57
48848;BME280;36611;51.638;5.784;2023-02-15T06:28:21;102600.31;;;5.60;54.67
48848;BME280;36611;51.638;5.784;2023-02-15T06:30:48;102603.00;;;5.60;54.67
48848;BME280;36611;51.638;5.784;2023-02-15T06:33:15;102599.44;;;5.60;54.56
48848;BME280;36611;51.638;5.784;2023-02-15T06:35:41;102603.91;;;5.59;54.66
48848;BME280;36611;51.638;5.784;2023-02-15T06:38:08;102608.38;;;5.57;54.51
48848;BME280;36611;51.638;5.784;2023-02-15T06:40:35;102608.47;;;5.54;54.85
48848;BME280;36611;51.638;5.784;2023-02-15T06:43:01;102606.69;;;5.53;54.70
48848;BME280;36611;51.638;5.784;2023-02-15T06:45:28;102606.63;;;5.56;54.71
48848;BME280;36611;51.638;5.784;2023-02-15T06:47:54;102604.84;;;5.57;54.56
48848;BME280;36611;51.638;5.784;2023-02-15T06:50:21;102607.50;;;5.57;54.62
48848;BME280;36611;51.638;5.784;2023-02-15T06:52:48;102606.66;;;5.55;54.75
48848;BME280;36611;51.638;5.784;2023-02-15T06:55:14;102603.19;;;5.51;54.69
48848;BME280;36611;51.638;5.784;2023-02-15T06:57:41;102597.00;;;5.51;54.83
48848;BME280;36611;51.638;5.784;2023-02-15T07:00:08;102600.56;;;5.50;54.89
48848;BME280;36611;51.638;5.784;2023-02-15T07:02:35;102592.59;;;5.48;54.85
48848;BME280;36611;51.638;5.784;2023-02-15T07:05:01;102584.59;;;5.48;54.86
48848;BME280;36611;51.638;5.784;2023-02-15T07:07:29;102594.41;;;5.48;54.85
48848;BME280;36611;51.638;5.784;2023-02-15T07:09:55;102593.56;;;5.46;54.89
48848;BME280;36611;51.638;5.784;2023-02-15T07:12:22;102590.00;;;5.45;54.90
48848;BME280;36611;51.638;5.784;2023-02-15T07:15:18;102586.47;;;5.45;54.96
48848;BME280;36611;51.638;5.784;2023-02-15T07:17:47;102589.09;;;5.46;55.01
48848;BME280;36611;51.638;5.784;2023-02-15T07:20:19;102590.81;;;5.49;55.02
48848;BME280;36611;51.638;5.784;2023-02-15T07:22:47;102583.59;;;5.54;55.04
48848;BME280;36611;51.638;5.784;2023-02-15T07:25:14;102579.94;;;5.58;55.07
48848;BME280;36611;51.638;5.784;2023-02-15T07:27:41;102579.88;;;5.61;55.03
48848;BME280;36611;51.638;5.784;2023-02-15T07:30:10;102572.69;;;5.64;55.08
48848;BME280;36611;51.638;5.784;2023-02-15T07:32:37;102570.88;;;5.66;55.01
48848;BME280;36611;51.638;5.784;2023-02-15T07:35:24;102564.59;;;5.69;55.15
48848;BME280;36611;51.638;5.784;2023-02-15T07:37:51;102566.31;;;5.71;55.11
48848;BME280;36611;51.638;5.784;2023-02-15T07:40:19;102567.09;;;5.75;55.27
48848;BME280;36611;51.638;5.784;2023-02-15T07:42:49;102564.38;;;5.78;55.21
48848;BME280;36611;51.638;5.784;2023-02-15T07:45:18;102565.19;;;5.82;55.22
48848;BME280;36611;51.638;5.784;2023-02-15T07:47:45;102564.16;;;5.87;55.37
48848;BME280;36611;51.638;5.784;2023-02-15T07:50:11;102568.50;;;5.93;55.37
48848;BME280;36611;51.638;5.784;2023-02-15T07:52:38;102566.59;;;5.99;55.46
48848;BME280;36611;51.638;5.784;2023-02-15T07:55:05;102569.03;;;6.09;55.61
48848;BME280;36611;51.638;5.784;2023-02-15T07:57:32;102565.25;;;6.17;55.62
48848;BME280;36611;51.638;5.784;2023-02-15T07:59:58;102572.09;;;6.27;55.65
48848;BME280;36611;51.638;5.784;2023-02-15T08:02:25;102571.91;;;6.35;55.66
48848;BME280;36611;51.638;5.784;2023-02-15T08:04:51;102559.19;;;6.45;55.95
48848;BME280;36611;51.638;5.784;2023-02-15T08:07:18;102558.91;;;6.55;55.83
48848;BME280;36611;51.638;5.784;2023-02-15T08:09:44;102565.75;;;6.65;55.73
48848;BME280;36611;51.638;5.784;2023-02-15T08:12:11;102555.66;;;6.77;55.79
48848;BME280;36611;51.638;5.784;2023-02-15T08:14:38;102556.19;;;6.89;55.84
48848;BME280;36611;51.638;5.784;2023-02-15T08:17:05;102557.66;;;7.01;55.87
48848;BME280;36611;51.638;5.784;2023-02-15T08:19:32;102551.97;;;7.12;55.88
48848;BME280;36611;51.638;5.784;2023-02-15T08:22:04;102552.63;;;7.20;55.73
48848;BME280;36611;51.638;5.784;2023-02-15T08:24:35;102547.06;;;7.27;55.73
48848;BME280;36611;51.638;5.784;2023-02-15T08:27:04;102537.06;;;7.34;55.74
48848;BME280;36611;51.638;5.784;2023-02-15T08:29:33;102542.16;;;7.43;55.75
48848;BME280;36611;51.638;5.784;2023-02-15T08:32:03;102536.56;;;7.51;55.79
48848;BME280;36611;51.638;5.784;2023-02-15T08:34:33;102538.94;;;7.60;55.71
48848;BME280;36611;51.638;5.784;2023-02-15T08:37:01;102546.00;;;7.62;55.78
48848;BME280;36611;51.638;5.784;2023-02-15T08:39:27;102533.50;;;7.63;55.64
48848;BME280;36611;51.638;5.784;2023-02-15T08:41:55;102536.13;;;7.64;55.61
48848;BME280;36611;51.638;5.784;2023-02-15T08:44:21;102531.56;;;7.68;55.61
48848;BME280;36611;51.638;5.784;2023-02-15T08:46:49;102530.47;;;7.74;55.62
48848;BME280;36611;51.638;5.784;2023-02-15T08:49:21;102524.00;;;7.81;55.93
48848;BME280;36611;51.638;5.784;2023-02-15T08:51:49;102520.09;;;7.91;55.95
48848;BME280;36611;51.638;5.784;2023-02-15T08:54:19;102521.50;;;8.03;56.17
48848;BME280;36611;51.638;5.784;2023-02-15T08:56:47;102521.88;;;8.18;56.23
48848;BME280;36611;51.638;5.784;2023-02-15T08:59:19;102521.25;;;8.37;56.24
48848;BME280;36611;51.638;5.784;2023-02-15T09:01:48;102517.00;;;8.56;56.24
48848;BME280;36611;51.638;5.784;2023-02-15T09:04:15;102521.81;;;8.71;56.38
48848;BME280;36611;51.638;5.784;2023-02-15T09:06:44;102524.84;;;8.85;56.41
48848;BME280;36611;51.638;5.784;2023-02-15T09:09:14;102515.31;;;9.02;56.23
48848;BME280;36611;51.638;5.784;2023-02-15T09:11:43;102519.88;;;9.23;56.18
48848;BME280;36611;51.638;5.784;2023-02-15T09:14:16;102525.31;;;9.43;56.13
48848;BME280;36611;51.638;5.784;2023-02-15T09:16:44;102519.97;;;9.65;56.17
48848;BME280;36611;51.638;5.784;2023-02-15T09:19:16;102521.00;;;9.84;55.97
48848;BME280;36611;51.638;5.784;2023-02-15T09:21:45;102514.97;;;10.00;55.66
48848;BME280;36611;51.638;5.784;2023-02-15T09:24:14;102516.13;;;10.14;55.44
48848;BME280;36611;51.638;5.784;2023-02-15T09:26:43;102519.28;;;10.26;55.40
48848;BME280;36611;51.638;5.784;2023-02-15T09:29:11;102509.34;;;10.28;55.00
48848;BME280;36611;51.638;5.784;2023-02-15T09:31:43;102508.53;;;10.26;54.81
48848;BME280;36611;51.638;5.784;2023-02-15T09:34:12;102514.91;;;10.23;54.58
48848;BME280;36611;51.638;5.784;2023-02-15T09:36:40;102515.72;;;10.25;54.80
48848;BME280;36611;51.638;5.784;2023-02-15T09:39:24;102507.19;;;10.36;54.75
48848;BME280;36611;51.638;5.784;2023-02-15T09:47:24;102502.38;;;10.64;54.72
48848;BME280;36611;51.638;5.784;2023-02-15T09:55:26;102492.75;;;10.98;54.29
48848;BME280;36611;51.638;5.784;2023-02-15T10:00:44;102490.69;;;11.23;54.19
48848;BME280;36611;51.638;5.784;2023-02-15T10:11:36;102491.50;;;11.80;53.74
48848;BME280;36611;51.638;5.784;2023-02-15T10:16:53;102488.63;;;12.02;53.33
48848;BME280;36611;51.638;5.784;2023-02-15T10:21:59;102494.50;;;12.27;53.03
48848;BME280;36611;51.638;5.784;2023-02-15T10:24:41;102491.88;;;12.43;53.10
48848;BME280;36611;51.638;5.784;2023-02-15T10:27:19;102482.88;;;12.60;52.86
48848;BME280;36611;51.638;5.784;2023-02-15T10:30:11;102485.75;;;12.74;52.62
48848;BME280;36611;51.638;5.784;2023-02-15T10:33:04;102482.13;;;12.91;52.85
48848;BME280;36611;51.638;5.784;2023-02-15T10:38:33;102486.56;;;13.25;52.51
48848;BME280;36611;51.638;5.784;2023-02-15T10:41:17;102491.72;;;13.45;52.63
48848;BME280;36611;51.638;5.784;2023-02-15T11:06:19;102473.63;;;15.24;50.31
48848;BME280;36611;51.638;5.784;2023-02-15T11:08:52;102469.81;;;15.41;50.35
48848;BME280;36611;51.638;5.784;2023-02-15T11:11:23;102473.66;;;15.51;49.98
48848;BME280;36611;51.638;5.784;2023-02-15T11:13:56;102472.22;;;15.60;49.63
48848;BME280;36611;51.638;5.784;2023-02-15T11:16:29;102459.72;;;15.71;49.35
48848;BME280;36611;51.638;5.784;2023-02-15T11:19:08;102465.84;;;15.87;49.43
48848;BME280;36611;51.638;5.784;2023-02-15T11:21:44;102457.53;;;16.03;48.81
48848;BME280;36611;51.638;5.784;2023-02-15T11:24:13;102459.41;;;16.15;48.71
48848;BME280;36611;51.638;5.784;2023-02-15T11:26:44;102447.06;;;16.24;48.25
48848;BME280;36611;51.638;5.784;2023-02-15T11:32:37;102452.97;;;16.56;47.96
48848;BME280;36611;51.638;5.784;2023-02-15T11:40:26;102445.25;;;17.01;47.61
48848;BME280;36611;51.638;5.784;2023-02-15T11:42:56;102444.69;;;17.08;46.84
48848;BME280;36611;51.638;5.784;2023-02-15T11:45:29;102440.13;;;17.09;46.72
48848;BME280;36611;51.638;5.784;2023-02-15T11:47:58;102430.81;;;17.13;46.59
48848;BME280;36611;51.638;5.784;2023-02-15T11:50:31;102427.63;;;17.19;46.13
48848;BME280;36611;51.638;5.784;2023-02-15T11:53:04;102421.41;;;17.30;45.83
48848;BME280;36611;51.638;5.784;2023-02-15T11:55:32;102415.41;;;17.37;45.91
48848;BME280;36611;51.638;5.784;2023-02-15T12:00:37;102406.38;;;17.61;45.03
48848;BME280;36611;51.638;5.784;2023-02-15T12:06:05;102396.28;;;17.87;45.32
48848;BME280;36611;51.638;5.784;2023-02-15T12:08:42;102394.34;;;18.00;44.92
48848;BME280;36611;51.638;5.784;2023-02-15T12:11:17;102393.16;;;18.15;44.66
48848;BME280;36611;51.638;5.784;2023-02-15T12:13:57;102388.47;;;18.28;43.94
48848;BME280;36611;51.638;5.784;2023-02-15T12:16:26;102381.31;;;18.38;43.97
48848;BME280;36611;51.638;5.784;2023-02-15T12:18:56;102373.41;;;18.47;43.74
48848;BME280;36611;51.638;5.784;2023-02-15T12:21:34;102368.09;;;18.56;43.61
48848;BME280;36611;51.638;5.784;2023-02-15T12:24:28;102357.50;;;18.64;42.97
48848;BME280;36611;51.638;5.784;2023-02-15T12:27:18;102362.22;;;18.73;42.66
48848;BME280;36611;51.638;5.784;2023-02-15T12:29:51;102361.84;;;18.78;42.75
48848;BME280;36611;51.638;5.784;2023-02-15T12:32:34;102366.03;;;18.82;42.54
48848;BME280;36611;51.638;5.784;2023-02-15T12:38:03;102369.97;;;19.00;42.13
48848;BME280;36611;51.638;5.784;2023-02-15T12:40:32;102366.47;;;19.10;42.40
48848;BME280;36611;51.638;5.784;2023-02-15T12:42:59;102360.38;;;19.17;42.26
48848;BME280;36611;51.638;5.784;2023-02-15T12:45:32;102367.91;;;19.25;42.01
48848;BME280;36611;51.638;5.784;2023-02-15T12:50:51;102353.69;;;19.32;41.67
48848;BME280;36611;51.638;5.784;2023-02-15T12:53:39;102351.69;;;19.34;41.19
48848;BME280;36611;51.638;5.784;2023-02-15T12:56:08;102357.63;;;19.40;41.06
48848;BME280;36611;51.638;5.784;2023-02-15T12:58:41;102348.31;;;19.42;41.34
48848;BME280;36611;51.638;5.784;2023-02-15T13:03:38;102345.31;;;19.56;40.74
48848;BME280;36611;51.638;5.784;2023-02-15T13:06:05;102332.31;;;19.60;40.79
48848;BME280;36611;51.638;5.784;2023-02-15T13:08:55;102327.44;;;19.63;40.30
48848;BME280;36611;51.638;5.784;2023-02-15T13:11:26;102333.38;;;19.68;40.43
48848;BME280;36611;51.638;5.784;2023-02-15T13:13:59;102324.06;;;19.71;40.38
48848;BME280;36611;51.638;5.784;2023-02-15T13:16:31;102320.59;;;19.69;40.02
48848;BME280;36611;51.638;5.784;2023-02-15T13:19:04;102315.28;;;19.67;39.84
48848;BME280;36611;51.638;5.784;2023-02-15T13:21:37;102316.69;;;19.62;39.68
48848;BME280;36611;51.638;5.784;2023-02-15T13:24:18;102314.09;;;19.60;39.80
48848;BME280;36611;51.638;5.784;2023-02-15T13:26:47;102315.94;;;19.60;39.87
48848;BME280;36611;51.638;5.784;2023-02-15T13:29:28;102307.16;;;19.56;39.62
48848;BME280;36611;51.638;5.784;2023-02-15T13:31:58;102301.47;;;19.59;39.79
48848;BME280;36611;51.638;5.784;2023-02-15T13:34:33;102302.19;;;19.61;39.77
48848;BME280;36611;51.638;5.784;2023-02-15T13:37:34;102299.00;;;19.56;39.26
48848;BME280;36611;51.638;5.784;2023-02-15T13:40:22;102289.13;;;19.44;39.46
48848;BME280;36611;51.638;5.784;2023-02-15T13:51:22;102282.97;;;18.99;39.69
48848;BME280;36611;51.638;5.784;2023-02-15T13:59:19;102277.88;;;19.05;40.29
48848;BME280;36611;51.638;5.784;2023-02-15T14:01:58;102273.69;;;19.01;40.00
48848;BME280;36611;51.638;5.784;2023-02-15T14:16:31;102272.91;;;18.67;40.24
48848;BME280;36611;51.638;5.784;2023-02-15T14:21:41;102277.47;;;18.67;40.74
48848;BME280;36611;51.638;5.784;2023-02-15T14:32:16;102274.38;;;18.60;41.12
48848;BME280;36611;51.638;5.784;2023-02-15T14:34:53;102273.50;;;18.60;41.18
48848;BME280;36611;51.638;5.784;2023-02-15T14:37:46;102273.63;;;18.58;41.51
48848;BME280;36611;51.638;5.784;2023-02-15T14:43:16;102276.56;;;18.55;41.42
48848;BME280;36611;51.638;5.784;2023-02-15T14:48:52;102276.34;;;18.47;41.59
48848;BME280;36611;51.638;5.784;2023-02-15T14:56:45;102282.16;;;18.31;42.11
48848;BME280;36611;51.638;5.784;2023-02-15T14:59:15;102283.53;;;18.26;42.18
48848;BME280;36611;51.638;5.784;2023-02-15T15:01:52;102286.75;;;18.20;42.41
48848;BME280;36611;51.638;5.784;2023-02-15T15:04:27;102288.09;;;18.14;42.40
48848;BME280;36611;51.638;5.784;2023-02-15T15:07:07;102284.88;;;18.09;42.24
48848;BME280;36611;51.638;5.784;2023-02-15T15:09:38;102293.41;;;18.04;42.43
48848;BME280;36611;51.638;5.784;2023-02-15T15:14:48;102300.56;;;17.94;42.43
48848;BME280;36611;51.638;5.784;2023-02-15T15:20:14;102300.50;;;17.83;42.81
48848;BME280;36611;51.638;5.784;2023-02-15T15:22:43;102297.41;;;17.76;42.64
48848;BME280;36611;51.638;5.784;2023-02-15T15:28:00;102292.03;;;17.64;42.59
48848;BME280;36611;51.638;5.784;2023-02-15T15:49:37;102273.31;;;16.89;43.01
48848;BME280;36611;51.638;5.784;2023-02-15T15:52:13;102274.13;;;16.78;43.01
48848;BME280;36611;51.638;5.784;2023-02-15T15:54:41;102283.81;;;16.70;43.11
48848;BME280;36611;51.638;5.784;2023-02-15T15:59:50;102279.84;;;16.50;43.23
48848;BME280;36611;51.638;5.784;2023-02-15T16:02:17;102281.38;;;16.41;42.88
48848;BME280;36611;51.638;5.784;2023-02-15T16:04:45;102264.25;;;16.28;43.16
48848;BME280;36611;51.638;5.784;2023-02-15T16:07:23;102269.69;;;16.15;43.08
48848;BME280;36611;51.638;5.784;2023-02-15T16:12:30;102269.25;;;15.96;42.86
48848;BME280;36611;51.638;5.784;2023-02-15T16:15:01;102278.16;;;15.85;42.89
48848;BME280;36611;51.638;5.784;2023-02-15T16:17:30;102284.31;;;15.75;43.09
48848;BME280;36611;51.638;5.784;2023-02-15T16:20:02;102280.53;;;15.65;43.31
48848;BME280;36611;51.638;5.784;2023-02-15T16:22:31;102283.81;;;15.55;43.28
48848;BME280;36611;51.638;5.784;2023-02-15T16:27:39;102270.34;;;15.29;43.63
48848;BME280;36611;51.638;5.784;2023-02-15T16:30:23;102270.31;;;15.16;43.40
48848;BME280;36611;51.638;5.784;2023-02-15T16:32:57;102268.22;;;15.07;43.64
48848;BME280;36611;51.638;5.784;2023-02-15T16:35:30;102275.97;;;14.99;43.55